Time;durP1;ratioP1;P1;durP2;ratioP2;P2;SDS_P1;SDS_P2;PMS_P1;PMS_P2;Temp;Humidity;BMP_temperature;BMP_pressure;BME280_temperature;BME280_humidity;BME280_pressure;Samples;Min_cycle;Max_cycle;Signal;HPM_P1;HPM_P2
2023/06/03 00:00:53;;;;;;;4.93;1.65;;;;;;;13.95;34.54;100819.44;4948262;28;100600;-84
2023/06/03 00:03:20;;;;;;;11.98;1.75;;;;;;;14.00;33.88;100811.34;4936783;28;101503;-85
2023/06/03 00:05:45;;;;;;;4.20;1.75;;;;;;;13.82;34.34;100816.44;4936885;28;97360;-85
2023/06/03 00:08:11;;;;;;;10.13;1.83;;;;;;;13.87;34.27;100824.16;4950688;28;97012;-86
2023/06/03 00:10:37;;;;;;;3.78;1.55;;;;;;;13.61;34.14;100764.50;4973013;28;98089;-86
2023/06/03 00:13:02;;;;;;;9.10;2.00;;;;;;;13.80;34.88;100820.91;4936442;28;99348;-85
2023/06/03 00:15:28;;;;;;;4.40;1.52;;;;;;;13.63;35.41;100818.06;4968732;28;96802;-86
2023/06/03 00:17:53;;;;;;;6.90;1.92;;;;;;;13.69;35.32;100831.00;4933568;28;96919;-85
2023/06/03 00:20:19;;;;;;;6.55;1.75;;;;;;;13.58;35.26;100830.56;4950768;28;101119;-86
2023/06/03 00:22:46;;;;;;;7.80;1.83;;;;;;;13.46;35.51;100786.22;4940092;28;101501;-86
2023/06/03 00:25:12;;;;;;;8.63;2.10;;;;;;;13.39;36.00;100811.09;4958802;28;96708;-85
2023/06/03 00:27:38;;;;;;;7.85;2.47;;;;;;;13.36;35.60;100783.06;4954349;28;97219;-86
2023/06/03 00:30:06;;;;;;;3.88;1.73;;;;;;;13.57;36.15;100821.78;4927796;28;101382;-85
2023/06/03 00:32:32;;;;;;;6.93;1.95;;;;;;;13.49;35.95;100829.13;4954130;28;101279;-86
2023/06/03 00:34:58;;;;;;;3.67;1.67;;;;;;;13.30;35.93;100820.22;4973324;28;97202;-86
2023/06/03 00:37:24;;;;;;;3.95;1.80;;;;;;;13.31;36.02;100833.34;4955320;28;97168;-86
2023/06/03 00:39:50;;;;;;;6.35;1.90;;;;;;;13.13;36.67;100823.44;4940639;28;100924;-88
2023/06/03 00:42:15;;;;;;;9.60;2.65;;;;;;;13.18;36.84;100839.06;4957080;28;101179;-87
2023/06/03 00:44:41;;;;;;;9.00;2.28;;;;;;;13.25;36.59;100838.84;4931735;28;97320;-86
2023/06/03 00:47:07;;;;;;;6.00;1.75;;;;;;;13.24;36.83;100846.78;4928741;28;97192;-86
2023/06/03 00:49:34;;;;;;;3.45;1.65;;;;;;;12.82;36.70;100794.69;4943017;28;99975;-86
2023/06/03 00:52:00;;;;;;;3.28;1.50;;;;;;;12.74;37.27;100825.72;4943667;28;97914;-85
2023/06/03 00:54:26;;;;;;;4.32;1.80;;;;;;;13.07;36.74;100816.63;4935980;28;97561;-86
2023/06/03 00:56:52;;;;;;;4.03;1.92;;;;;;;13.02;36.31;100786.06;4933010;28;97308;-90
2023/06/03 00:59:18;;;;;;;5.45;1.65;;;;;;;13.13;36.31;100839.25;4925478;28;101195;-88
2023/06/03 01:01:44;;;;;;;4.93;1.63;;;;;;;13.03;37.64;100856.31;4948503;28;101487;-86
2023/06/03 01:04:11;;;;;;;9.38;2.28;;;;;;;12.97;37.73;100846.84;4958285;28;97048;-86
2023/06/03 01:06:57;;;;;;;8.38;1.85;;;;;;;12.69;38.06;100858.34;4914081;28;96883;-86
2023/06/03 01:09:33;;;;;;;4.28;1.88;;;;;;;12.84;38.36;100858.75;4913169;28;101365;-86
2023/06/03 01:12:27;;;;;;;3.85;1.75;;;;;;;12.75;37.96;100849.38;4951666;28;101034;-86
2023/06/03 01:15:06;;;;;;;4.55;1.67;;;;;;;12.74;38.20;100855.56;4914987;28;97009;-91
2023/06/03 01:17:36;;;;;;;6.10;1.80;;;;;;;12.85;37.93;100866.56;4901083;28;97345;-87
2023/06/03 01:20:09;;;;;;;4.10;1.60;;;;;;;12.84;38.01;100840.28;4950536;28;97641;-85
2023/06/03 01:22:40;;;;;;;3.63;2.00;;;;;;;12.81;38.40;100870.25;4950037;28;100861;-87
2023/06/03 01:25:11;;;;;;;7.40;1.90;;;;;;;12.69;39.24;100866.25;4941278;28;97114;-86
2023/06/03 01:27:39;;;;;;;4.57;2.00;;;;;;;12.83;38.76;100875.47;4929340;28;96885;-86
2023/06/03 01:30:10;;;;;;;4.55;1.85;;;;;;;12.43;38.86;100819.75;4916979;28;101290;-87
2023/06/03 01:32:37;;;;;;;5.57;1.80;;;;;;;12.31;38.89;100827.19;4938794;28;97860;-86
2023/06/03 01:35:06;;;;;;;5.43;2.05;;;;;;;12.45;39.13;100861.81;4929757;28;97364;-87
2023/06/03 01:37:33;;;;;;;10.15;1.85;;;;;;;12.49;39.72;100873.97;4931484;28;97201;-88
2023/06/03 01:40:00;;;;;;;6.43;1.85;;;;;;;12.29;39.34;100853.56;4934178;28;100583;-85
2023/06/03 01:42:29;;;;;;;7.25;1.73;;;;;;;11.87;40.33;100840.88;4961917;28;100947;-86
2023/06/03 01:44:58;;;;;;;4.45;2.58;;;;;;;11.98;40.34;100870.34;4930199;28;97326;-87
2023/06/03 01:47:24;;;;;;;6.68;1.80;;;;;;;11.87;40.83;100861.91;4933124;28;97372;-87
2023/06/03 01:49:49;;;;;;;5.80;1.77;;;;;;;12.06;40.56;100882.38;4915497;28;101506;-86
2023/06/03 01:52:15;;;;;;;9.15;2.20;;;;;;;11.89;40.96;100859.22;4933728;28;100135;-90
2023/06/03 01:54:41;;;;;;;4.65;1.85;;;;;;;12.04;40.79;100890.31;4926698;28;97128;-86
2023/06/03 01:57:08;;;;;;;7.47;1.70;;;;;;;11.77;40.49;100823.59;4932433;28;97270;-91
2023/06/03 01:59:34;;;;;;;4.25;2.15;;;;;;;12.14;40.24;100883.88;4933675;28;102122;-86
2023/06/03 02:02:00;;;;;;;5.07;2.10;;;;;;;12.02;40.52;100867.63;4934761;28;101277;-86
2023/06/03 02:04:26;;;;;;;8.05;2.13;;;;;;;12.10;41.08;100891.88;4947159;28;97360;-89
2023/06/03 02:06:53;;;;;;;4.38;2.03;;;;;;;12.30;40.42;100889.47;4951816;28;96911;-90
2023/06/03 02:09:24;;;;;;;4.55;1.90;;;;;;;12.20;40.42;100880.19;4930047;28;101463;-87
2023/06/03 02:11:54;;;;;;;2.65;1.50;;;;;;;12.01;40.82;100890.41;4930240;28;99953;-90
2023/06/03 02:14:21;;;;;;;4.53;1.80;;;;;;;12.18;40.50;100896.00;4949422;28;96823;-86
2023/06/03 02:16:48;;;;;;;7.97;2.63;;;;;;;12.06;41.04;100890.28;4935675;28;97072;-84
2023/06/03 02:19:17;;;;;;;3.22;1.70;;;;;;;11.74;41.06;100842.09;4938742;28;101477;-86
2023/06/03 02:21:43;;;;;;;4.95;2.08;;;;;;;11.98;41.01;100901.03;4934680;28;101344;-85
2023/06/03 02:24:10;;;;;;;7.22;2.03;;;;;;;11.86;41.44;100883.00;4938548;28;97971;-86
2023/06/03 02:26:38;;;;;;;6.32;2.45;;;;;;;11.71;41.43;100871.13;4925359;28;96892;-86
2023/06/03 02:29:06;;;;;;;4.05;2.05;;;;;;;11.86;41.47;100904.03;4936046;28;101587;-85
2023/06/03 02:31:32;;;;;;;7.20;1.80;;;;;;;11.92;41.28;100898.59;4933309;28;100965;-88
2023/06/03 02:34:00;;;;;;;8.20;1.95;;;;;;;11.88;41.45;100912.75;4928657;28;97608;-86
2023/06/03 02:36:25;;;;;;;6.63;1.55;;;;;;;11.27;41.96;100861.00;4930252;28;96940;-86
2023/06/03 02:38:51;;;;;;;6.60;2.03;;;;;;;11.61;42.26;100907.38;4947210;28;100897;-86
2023/06/03 02:41:17;;;;;;;8.68;1.70;;;;;;;11.43;42.23;100913.13;4950709;28;97992;-86
2023/06/03 02:43:42;;;;;;;5.68;1.88;;;;;;;11.51;42.12;100919.91;4936004;28;97250;-86
2023/06/03 02:46:08;;;;;;;5.95;2.00;;;;;;;11.48;42.45;100914.72;4936510;28;97033;-86
2023/06/03 02:48:34;;;;;;;4.03;1.67;;;;;;;10.95;41.97;100830.38;4937331;28;98439;-86
2023/06/03 02:51:00;;;;;;;8.50;2.05;;;;;;;11.46;42.30;100916.56;4937434;28;101262;-85
2023/06/03 02:53:25;;;;;;;8.52;2.10;;;;;;;11.20;42.58;100903.25;4926963;28;97286;-87
2023/06/03 02:55:51;;;;;;;3.47;1.67;;;;;;;11.33;42.32;100907.28;4937781;28;96880;-86
2023/06/03 02:58:17;;;;;;;10.13;1.65;;;;;;;11.24;43.03;100911.03;4933049;28;100043;-86
2023/06/03 03:00:43;;;;;;;10.15;1.92;;;;;;;11.36;42.63;100920.34;4939317;28;99822;-86
2023/06/03 03:03:09;;;;;;;5.13;1.70;;;;;;;11.12;42.95;100905.25;4926279;28;97056;-86
2023/06/03 03:05:36;;;;;;;11.23;2.40;;;;;;;11.04;42.91;100856.38;4931804;28;97153;-86
2023/06/03 03:08:03;;;;;;;4.47;1.73;;;;;;;11.33;42.66;100916.03;4936013;28;101414;-86
2023/06/03 03:10:29;;;;;;;4.22;1.65;;;;;;;11.31;43.18;100923.13;4927967;28;101123;-88
2023/06/03 03:12:54;;;;;;;7.80;2.33;;;;;;;11.11;42.64;100872.84;4933654;28;96938;-92
2023/06/03 03:15:21;;;;;;;6.85;1.70;;;;;;;11.16;43.26;100923.50;4918644;28;97208;-86
2023/06/03 03:17:47;;;;;;;6.13;1.40;;;;;;;11.34;43.23;100940.53;4933768;28;100982;-85
2023/06/03 03:20:13;;;;;;;9.50;2.10;;;;;;;11.43;43.24;100935.06;4936987;28;101106;-86
2023/06/03 03:22:44;;;;;;;3.13;1.70;;;;;;;11.64;42.62;100928.31;4949239;28;96909;-86
2023/06/03 03:25:12;;;;;;;3.55;1.67;;;;;;;11.63;42.74;100936.22;4941233;28;97271;-86
2023/06/03 03:27:40;;;;;;;8.93;3.22;;;;;;;11.46;42.22;100887.66;4947101;28;101329;-86
2023/06/03 03:30:07;;;;;;;3.90;1.63;;;;;;;11.90;42.38;100942.50;4920657;28;101365;-87
2023/06/03 03:32:34;;;;;;;6.03;2.15;;;;;;;11.92;41.83;100924.91;4934529;28;97289;-87
2023/06/03 03:35:16;;;;;;;3.67;1.35;;;;;;;11.98;41.33;100903.66;4944141;28;97168;-86
2023/06/03 03:37:45;;;;;;;4.05;1.40;;;;;;;11.95;42.03;100911.66;4921588;28;101717;-86
2023/06/03 03:40:17;;;;;;;5.88;1.98;;;;;;;11.97;42.13;100942.25;4931334;28;101660;-86
2023/06/03 03:42:47;;;;;;;4.93;1.20;;;;;;;11.93;42.16;100932.75;4934886;28;97228;-85
2023/06/03 03:45:17;;;;;;;5.75;1.90;;;;;;;12.12;41.77;100940.09;4938665;28;97063;-85
2023/06/03 03:47:42;;;;;;;8.73;2.10;;;;;;;11.88;42.47;100947.81;4930313;28;100811;-85
2023/06/03 03:50:37;;;;;;;8.63;1.60;;;;;;;11.87;42.50;100935.56;4934303;28;101504;-85
2023/06/03 03:53:04;;;;;;;3.17;1.50;;;;;;;11.57;42.15;100890.78;4928868;28;97055;-85
2023/06/03 03:55:30;;;;;;;6.78;1.65;;;;;;;12.12;41.79;100954.09;4936527;28;97188;-85
2023/06/03 03:57:56;;;;;;;5.03;1.60;;;;;;;12.39;41.17;100939.25;4928431;28;101344;-90
2023/06/03 04:00:22;;;;;;;3.95;1.90;;;;;;;12.60;40.91;100945.59;4929665;28;99951;-89
2023/06/03 04:02:53;;;;;;;10.15;1.73;;;;;;;12.44;41.52;100923.28;4946622;28;97273;-87
2023/06/03 04:05:22;;;;;;;4.05;1.60;;;;;;;12.69;40.96;100924.22;4940282;28;97276;-86
2023/06/03 04:07:49;;;;;;;9.50;2.00;;;;;;;12.84;40.94;100927.25;4927101;28;102004;-86
2023/06/03 04:10:15;;;;;;;7.85;1.95;;;;;;;12.69;41.18;100892.59;4924376;28;100951;-86
2023/06/03 04:12:41;;;;;;;4.00;1.52;;;;;;;12.90;40.93;100953.38;4932662;28;97886;-85
2023/06/03 04:15:09;;;;;;;7.65;1.73;;;;;;;12.80;41.13;100949.31;4929776;28;97480;-86
2023/06/03 04:17:36;;;;;;;2.58;1.02;;;;;;;12.86;40.73;100950.00;4944560;28;100796;-85
2023/06/03 04:20:05;;;;;;;6.28;1.50;;;;;;;13.22;40.56;100956.69;4920580;28;100972;-86
2023/06/03 04:22:32;;;;;;;5.10;1.77;;;;;;;13.22;40.99;100972.50;4929009;28;97307;-85
2023/06/03 04:25:02;;;;;;;5.88;2.13;;;;;;;13.06;40.93;100945.78;4949731;28;96840;-89
2023/06/03 04:27:48;;;;;;;3.75;1.40;;;;;;;13.27;40.63;100973.25;4951226;28;99504;-85
2023/06/03 04:30:16;;;;;;;5.13;1.42;;;;;;;13.25;40.37;100949.56;4944738;28;101567;-87
2023/06/03 04:32:41;;;;;;;3.08;1.30;;;;;;;13.67;40.14;100966.53;4930217;28;97574;-87
2023/06/03 04:35:07;;;;;;;4.65;1.40;;;;;;;13.83;39.96;100967.69;4946695;28;96880;-86
2023/06/03 04:37:35;;;;;;;3.05;1.52;;;;;;;13.79;39.67;100972.25;4937650;28;101697;-86
2023/06/03 04:40:01;;;;;;;4.25;1.65;;;;;;;13.77;40.06;100926.56;4934302;28;101197;-88
2023/06/03 04:42:30;;;;;;;3.10;1.60;;;;;;;13.65;39.44;100926.19;4948690;28;96941;-85
2023/06/03 04:44:58;;;;;;;6.40;1.55;;;;;;;14.08;39.42;100975.56;4941722;28;97069;-86
2023/06/03 04:47:28;;;;;;;3.20;1.50;;;;;;;14.10;39.23;100946.44;4936551;28;100101;-86
2023/06/03 04:49:55;;;;;;;2.35;1.65;;;;;;;14.05;39.56;100928.16;4962110;28;101113;-86
2023/06/03 04:52:20;;;;;;;3.65;1.67;;;;;;;14.25;39.21;100975.78;4932841;28;97177;-88
2023/06/03 04:54:51;;;;;;;8.05;2.42;;;;;;;14.49;38.86;100966.00;4936933;28;96978;-85
2023/06/03 04:57:20;;;;;;;8.10;1.90;;;;;;;14.57;39.32;100978.94;4928153;28;100786;-86
2023/06/03 04:59:45;;;;;;;5.63;1.60;;;;;;;14.37;39.04;100984.09;4929972;28;101211;-85
2023/06/03 05:02:16;;;;;;;4.35;1.58;;;;;;;14.51;38.46;100979.16;4944481;28;98042;-85
2023/06/03 05:04:43;;;;;;;3.72;2.30;;;;;;;14.50;39.06;100980.94;4925040;28;97590;-85
2023/06/03 05:07:11;;;;;;;6.45;1.55;;;;;;;14.71;39.15;100981.03;4949493;28;101173;-86
2023/06/03 05:09:36;;;;;;;3.85;1.67;;;;;;;14.87;38.62;100960.97;4931430;28;101676;-86
2023/06/03 05:12:02;;;;;;;4.22;1.60;;;;;;;15.03;38.60;100958.53;4916474;28;96888;-91
2023/06/03 05:14:30;;;;;;;4.07;1.75;;;;;;;15.31;38.04;100974.09;4945722;28;96970;-85
2023/06/03 05:16:57;;;;;;;6.35;1.48;;;;;;;15.13;38.33;100965.16;4932409;28;101793;-85
2023/06/03 05:19:22;;;;;;;4.18;1.48;;;;;;;15.32;38.39;100965.22;4938506;28;101440;-85
2023/06/03 05:21:48;;;;;;;5.63;1.85;;;;;;;15.66;38.03;100976.97;4919661;28;96814;-86
2023/06/03 05:24:14;;;;;;;6.80;1.40;;;;;;;15.69;37.74;100976.00;4949812;28;97264;-85
2023/06/03 05:26:40;;;;;;;4.20;1.52;;;;;;;15.72;37.57;100978.53;4945343;28;101226;-86
2023/06/03 05:29:05;;;;;;;5.15;1.40;;;;;;;15.65;37.14;100967.31;4947137;28;101135;-85
2023/06/03 05:31:31;;;;;;;5.20;1.30;;;;;;;15.86;37.51;100964.66;4939288;28;96944;-85
2023/06/03 05:33:57;;;;;;;2.85;1.50;;;;;;;15.96;37.01;100984.47;4943394;28;96887;-85
2023/06/03 05:36:27;;;;;;;5.00;1.70;;;;;;;16.18;37.00;100984.34;4944260;28;101551;-85
2023/06/03 05:38:57;;;;;;;8.40;1.40;;;;;;;16.48;36.49;100985.53;4937372;28;101585;-85
2023/06/03 05:41:23;;;;;;;2.78;1.48;;;;;;;17.29;35.52;100991.28;4934926;28;97122;-85
2023/06/03 05:43:48;;;;;;;4.18;1.52;;;;;;;17.75;34.86;100980.06;4940293;28;96928;-85
2023/06/03 05:46:14;;;;;;;3.50;1.20;;;;;;;18.89;33.03;100958.66;4954205;28;101167;-85
2023/06/03 05:48:40;;;;;;;2.95;1.38;;;;;;;20.84;30.61;100971.34;4948698;28;101177;-83
2023/06/03 05:51:06;;;;;;;2.85;1.58;;;;;;;22.28;28.71;100952.44;4926570;28;97357;-84
2023/06/03 05:53:32;;;;;;;2.47;1.40;;;;;;;24.56;26.05;100966.03;4928675;28;97417;-84
2023/06/03 05:56:01;;;;;;;7.43;1.50;;;;;;;28.20;22.32;100961.00;4941724;28;101553;-89
2023/06/03 05:58:28;;;;;;;5.57;1.70;;;;;;;33.07;18.05;100925.13;4954797;28;101691;-86
2023/06/03 06:00:54;;;;;;;6.70;1.40;;;;;;;36.35;15.43;100921.53;4943796;28;97163;-86
2023/06/03 06:03:20;;;;;;;5.15;1.80;;;;;;;39.46;13.71;100930.66;4927120;28;97473;-88
2023/06/03 06:05:46;;;;;;;6.90;1.80;;;;;;;41.60;12.28;100941.81;4953612;28;101639;-87
2023/06/03 06:08:12;;;;;;;10.20;2.13;;;;;;;42.41;11.92;100943.69;4937495;28;101682;-86
2023/06/03 06:10:38;;;;;;;3.63;1.90;;;;;;;43.89;11.04;100923.84;4936295;28;97069;-86
2023/06/03 06:13:04;;;;;;;5.05;1.70;;;;;;;44.94;10.41;100915.16;4950032;28;97379;-89
2023/06/03 06:15:30;;;;;;;2.38;1.50;;;;;;;45.93;9.56;100937.59;4949201;28;101104;-86
2023/06/03 06:17:56;;;;;;;3.13;1.67;;;;;;;46.32;9.53;100928.84;4935819;28;101869;-86
2023/06/03 06:20:23;;;;;;;2.72;1.88;;;;;;;47.37;9.15;100936.50;4949582;28;96928;-86
2023/06/03 06:22:49;;;;;;;2.78;1.60;;;;;;;47.48;8.64;100929.81;4951353;28;97077;-87
2023/06/03 06:25:15;;;;;;;4.30;1.55;;;;;;;48.13;8.67;100934.50;4942954;28;101151;-86
2023/06/03 06:27:42;;;;;;;2.90;1.50;;;;;;;48.80;8.29;100927.28;4932062;28;101429;-85
2023/06/03 06:30:08;;;;;;;4.00;1.90;;;;;;;49.67;7.90;100940.28;4931803;28;96998;-86
2023/06/03 06:32:48;;;;;;;3.88;1.55;;;;;;;49.47;7.73;100927.41;4955477;28;97428;-86
2023/06/03 06:35:16;;;;;;;7.18;1.88;;;;;;;50.69;7.56;100916.41;4927783;28;101625;-86
2023/06/03 06:37:42;;;;;;;4.33;1.60;;;;;;;51.51;6.89;100934.38;4938625;28;101050;-86
2023/06/03 06:40:08;;;;;;;2.83;1.88;;;;;;;52.11;7.00;100933.34;4936859;28;98030;-88
2023/06/03 06:42:41;;;;;;;4.95;2.30;;;;;;;51.60;6.87;100926.06;4931757;28;97657;-87
2023/06/03 06:45:21;;;;;;;2.10;1.75;;;;;;;52.57;6.28;100929.41;4930172;28;100334;-89
2023/06/03 06:47:47;;;;;;;4.20;1.85;;;;;;;51.71;6.98;100921.94;4926230;28;101187;-87
2023/06/03 06:50:29;;;;;;;5.70;1.65;;;;;;;52.44;6.51;100925.53;4937511;28;96858;-87
2023/06/03 06:52:55;;;;;;;2.53;1.75;;;;;;;52.27;6.75;100928.19;4922300;28;96786;-86
2023/06/03 06:55:55;;;;;;;3.20;2.03;;;;;;;53.85;6.08;100931.38;4954499;28;101716;-87
2023/06/03 06:58:36;;;;;;;7.40;2.50;;;;;;;53.79;6.23;100929.88;4955216;28;99220;-86
2023/06/03 07:01:05;;;;;;;3.40;1.92;;;;;;;54.07;6.24;100932.41;4927070;28;96775;-88
2023/06/03 07:03:33;;;;;;;2.13;1.92;;;;;;;54.35;6.12;100930.09;4936898;28;97171;-85
2023/06/03 07:05:59;;;;;;;4.55;2.60;;;;;;;55.28;6.06;100918.03;4934143;28;101654;-86
2023/06/03 07:08:27;;;;;;;6.40;2.60;;;;;;;55.72;5.92;100927.03;4948467;28;101103;-84
2023/06/03 07:10:59;;;;;;;3.03;2.40;;;;;;;56.76;5.16;100925.19;4942690;28;96782;-85
2023/06/03 07:13:26;;;;;;;4.78;2.58;;;;;;;56.85;5.44;100925.94;4935221;28;97656;-85
2023/06/03 07:15:52;;;;;;;2.95;2.13;;;;;;;57.08;5.33;100928.28;4946122;28;101189;-86
2023/06/03 07:18:21;;;;;;;2.33;2.20;;;;;;;56.82;5.18;100917.31;4928985;28;101617;-85
2023/06/03 07:20:48;;;;;;;2.50;2.30;;;;;;;57.28;5.20;100920.88;4936013;28;97450;-84
2023/06/03 07:23:21;;;;;;;4.95;2.50;;;;;;;58.00;4.57;100921.88;4948348;28;96878;-86
2023/06/03 07:25:49;;;;;;;2.60;2.40;;;;;;;58.78;4.68;100924.44;4946175;28;101229;-85
2023/06/03 07:28:17;;;;;;;3.97;2.67;;;;;;;59.07;5.26;100921.13;4929812;28;101440;-86
2023/06/03 07:30:45;;;;;;;2.22;2.08;;;;;;;59.39;4.66;100921.09;4939625;28;98446;-86
2023/06/03 07:33:20;;;;;;;;;;;;;;;59.97;4.33;100923.16;4935527;28;98031;-85
2023/06/03 07:36:00;;;;;;;2.65;2.45;;;;;;;57.93;3.94;100937.81;4952178;28;100998;-86
2023/06/03 07:38:37;;;;;;;3.22;2.50;;;;;;;57.90;4.73;100944.19;4951519;28;99349;-86
2023/06/03 07:41:08;;;;;;;4.30;2.50;;;;;;;58.38;4.31;100933.88;4945346;28;96988;-86
2023/06/03 07:43:40;;;;;;;3.15;2.47;;;;;;;58.60;4.76;100929.63;4927455;28;96924;-88
2023/06/03 07:46:07;;;;;;;3.17;2.88;;;;;;;59.36;4.64;100927.50;4949514;28;101396;-88
2023/06/03 07:48:33;;;;;;;3.17;2.92;;;;;;;60.62;4.33;100926.00;4948487;28;100494;-88
2023/06/03 07:50:59;;;;;;;3.13;2.93;;;;;;;59.74;4.15;100925.91;4930624;28;97161;-88
2023/06/03 07:53:25;;;;;;;3.13;2.92;;;;;;;60.69;4.61;100923.31;4917821;28;97174;-88
2023/06/03 07:55:51;;;;;;;3.55;3.30;;;;;;;61.49;4.14;100926.19;4939251;28;101258;-89
2023/06/03 07:58:17;;;;;;;5.35;3.33;;;;;;;60.80;4.17;100928.34;4936855;28;97317;-88
2023/06/03 08:00:45;;;;;;;3.00;2.80;;;;;;;58.16;4.10;100918.31;4947593;28;97581;-88
2023/06/03 08:03:14;;;;;;;;;;;;;;;60.10;4.19;100920.97;4936126;28;97652;-89
2023/06/03 08:05:41;;;;;;;6.18;3.38;;;;;;;60.88;4.34;100922.41;4944333;28;101394;-88
2023/06/03 08:08:10;;;;;;;3.72;3.42;;;;;;;61.16;3.43;100926.09;4927581;28;101339;-88
2023/06/03 08:10:35;;;;;;;3.65;3.35;;;;;;;60.68;3.86;100913.16;4942076;28;97344;-89
2023/06/03 08:13:02;;;;;;;3.28;3.08;;;;;;;59.47;3.49;100922.03;4945442;28;96865;-89
2023/06/03 08:15:32;;;;;;;3.10;2.90;;;;;;;58.16;3.88;100907.00;4948252;28;97474;-88
2023/06/03 08:17:59;;;;;;;4.50;2.90;;;;;;;59.47;3.58;100927.69;4949226;28;98556;-88
2023/06/03 08:20:28;;;;;;;4.97;2.93;;;;;;;57.41;4.23;100924.50;4922982;28;97490;-87
2023/06/03 08:22:55;;;;;;;4.25;2.60;;;;;;;58.06;4.16;100922.47;4929038;28;97202;-86
2023/06/03 08:25:21;;;;;;;6.45;2.97;;;;;;;57.26;4.84;100923.25;4922047;28;100997;-84
2023/06/03 08:27:47;;;;;;;3.72;2.85;;;;;;;56.29;5.27;100903.00;4928867;28;101194;-81
2023/06/03 08:30:13;;;;;;;2.75;2.38;;;;;;;51.97;6.00;100936.16;4958989;28;97088;-78
2023/06/03 08:32:40;;;;;;;2.28;2.00;;;;;;;47.67;7.53;100938.34;4926670;28;97441;-83
2023/06/03 08:35:09;;;;;;;2.08;1.40;;;;;;;43.15;9.22;100940.84;4941896;28;101394;-84
2023/06/03 08:37:35;;;;;;;2.13;1.48;;;;;;;40.94;10.10;100956.75;4950932;28;98042;-83
2023/06/03 08:40:05;;;;;;;1.40;1.15;;;;;;;39.66;10.64;100947.75;4947300;28;96877;-84
2023/06/03 08:42:39;;;;;;;4.45;1.50;;;;;;;38.26;11.14;100959.84;4927426;28;97012;-84
2023/06/03 08:45:15;;;;;;;1.20;1.02;;;;;;;36.57;12.07;100963.25;4949552;28;101086;-85
2023/06/03 08:47:46;;;;;;;1.35;0.80;;;;;;;35.65;13.06;100961.81;4961993;28;97546;-85
2023/06/03 08:50:18;;;;;;;2.20;1.20;;;;;;;34.63;13.24;100948.59;4944656;28;96913;-85
2023/06/03 08:52:47;;;;;;;1.80;1.05;;;;;;;33.46;13.96;100951.28;4921991;28;97608;-85
2023/06/03 08:55:15;;;;;;;1.50;1.10;;;;;;;32.81;14.69;100955.41;4937214;28;101489;-84
2023/06/03 08:57:47;;;;;;;5.47;1.05;;;;;;;31.60;13.99;100970.28;4930137;28;100507;-78
2023/06/03 09:00:18;;;;;;;3.92;1.20;;;;;;;29.44;16.03;100955.72;4949643;28;97389;-83
2023/06/03 09:02:43;;;;;;;3.47;1.50;;;;;;;29.28;16.80;100961.88;4952199;28;97412;-84
2023/06/03 09:05:09;;;;;;;3.72;1.15;;;;;;;28.20;17.00;100963.72;4923993;28;101596;-83
2023/06/03 09:07:35;;;;;;;2.15;0.90;;;;;;;26.13;18.10;100967.78;4952711;28;97979;-83
2023/06/03 09:10:03;;;;;;;4.30;1.02;;;;;;;26.08;18.60;100971.84;4951065;28;96932;-83
2023/06/03 09:12:29;;;;;;;2.58;1.42;;;;;;;25.53;18.93;100977.53;4942979;28;97268;-75
2023/06/03 09:14:56;;;;;;;4.38;1.10;;;;;;;24.93;19.72;100969.19;4951894;28;98443;-83
2023/06/03 09:17:24;;;;;;;1.27;1.08;;;;;;;25.02;20.36;100971.09;4949997;28;101148;-84
2023/06/03 09:19:50;;;;;;;6.30;1.50;;;;;;;25.29;19.86;100916.88;4922071;28;97364;-83
2023/06/03 09:22:17;;;;;;;5.10;1.20;;;;;;;25.33;19.49;100944.31;4958579;28;97364;-84
2023/06/03 09:24:43;;;;;;;4.47;1.20;;;;;;;24.99;18.78;100940.97;4940548;28;97456;-83
2023/06/03 09:27:08;;;;;;;5.82;1.50;;;;;;;25.55;19.42;100943.31;4943473;28;97418;-83
2023/06/03 09:29:34;;;;;;;3.15;1.00;;;;;;;25.78;19.81;100938.59;4944268;28;97480;-84
2023/06/03 09:31:59;;;;;;;4.35;1.15;;;;;;;25.18;19.28;100953.72;4931365;28;97807;-84
2023/06/03 09:34:26;;;;;;;1.65;1.00;;;;;;;25.36;19.51;100952.13;4935082;28;101017;-83
2023/06/03 09:36:52;;;;;;;5.95;1.20;;;;;;;25.38;20.27;100955.53;4951691;28;101614;-81
2023/06/03 09:39:33;;;;;;;2.13;1.10;;;;;;;24.81;19.23;100946.03;4941706;28;96830;-81
2023/06/03 09:41:59;;;;;;;2.55;1.15;;;;;;;24.08;20.59;100942.22;4950778;28;97480;-82
2023/06/03 09:44:24;;;;;;;4.25;1.58;;;;;;;23.85;20.30;100963.72;4943910;28;101956;-82
2023/06/03 09:46:50;;;;;;;7.90;1.30;;;;;;;23.87;21.43;100961.75;4949196;28;100919;-81
2023/06/03 09:49:17;;;;;;;5.63;1.40;;;;;;;23.33;21.53;100949.03;4937188;28;97302;-82
2023/06/03 09:51:43;;;;;;;3.40;1.30;;;;;;;23.34;21.46;100961.44;4946784;28;96971;-81
2023/06/03 09:54:13;;;;;;;5.00;1.33;;;;;;;23.60;21.52;100958.56;4937076;28;98573;-82
2023/06/03 09:56:39;;;;;;;6.70;1.00;;;;;;;22.83;21.19;100954.56;4961063;28;97884;-82
2023/06/03 09:59:19;;;;;;;4.97;1.10;;;;;;;21.70;21.99;100939.63;4929615;28;97726;-82
2023/06/03 10:01:47;;;;;;;3.63;1.58;;;;;;;21.34;21.97;100913.66;4966532;28;96823;-84
2023/06/03 10:04:16;;;;;;;2.60;1.20;;;;;;;21.68;22.18;100956.72;4936683;28;101209;-83
2023/06/03 10:06:42;;;;;;;2.70;1.10;;;;;;;22.04;22.69;100953.25;4933150;28;101075;-83
2023/06/03 10:09:22;;;;;;;14.20;1.65;;;;;;;22.02;21.89;100959.66;4948409;28;96818;-82
2023/06/03 10:11:50;;;;;;;4.80;1.40;;;;;;;21.68;21.26;100962.06;4969222;28;96820;-83
2023/06/03 10:14:21;;;;;;;3.45;1.60;;;;;;;21.14;22.60;100943.53;4932775;28;101048;-82
2023/06/03 10:17:06;;;;;;;;;;;;;;;21.44;23.77;100954.81;4929697;28;101310;-82
2023/06/03 10:19:33;;;;;;;;;;;;;;;21.55;24.88;100954.06;4943484;28;97452;-82
2023/06/03 10:21:58;;;;;;;;;;;;;;;22.00;24.48;100946.41;4938992;28;96994;-77
2023/06/03 10:24:24;;;;;;;;;;;;;;;22.17;24.06;100947.91;4951688;28;97812;-80
2023/06/03 10:26:50;;;;;;;;;;;;;;;22.35;24.29;100956.41;4932913;28;100584;-76
2023/06/03 10:29:15;;;;;;;;;;;;;;;22.07;22.52;100946.81;4948894;28;97412;-79
2023/06/03 10:31:41;;;;;;;;;;;;;;;21.89;23.27;100941.84;4962118;28;97053;-76
2023/06/03 10:34:06;;;;;;;;;;;;;;;21.52;23.10;100945.41;4948671;28;101712;-76
2023/06/03 10:36:32;;;;;;;;;;;;;;;21.34;24.07;100937.69;4958990;28;98158;-76
2023/06/03 10:38:58;;;;;;;;;;;;;;;21.89;24.10;100936.50;4962026;28;97071;-77
2023/06/03 10:41:23;;;;;;;;;;;;;;;21.93;23.51;100937.13;4959766;28;98515;-76
2023/06/03 10:43:49;;;;;;;;;;;;;;;21.94;24.01;100930.81;4939729;28;101220;-76
2023/06/03 10:46:15;;;;;;;;;;;;;;;21.33;24.17;100935.13;4942927;28;97774;-82
2023/06/03 10:48:41;;;;;;;;;;;;;;;21.20;23.97;100935.09;4929406;28;96749;-81
2023/06/03 10:51:07;;;;;;;;;;;;;;;20.80;24.71;100930.69;4933996;28;97323;-81
2023/06/03 10:53:49;;;;;;;;;;;;;;;20.85;24.61;100925.03;4937933;28;101409;-80
2023/06/03 10:56:26;;;;;;;;;;;;;;;21.07;25.05;100916.44;4946889;28;101160;-80
2023/06/03 10:59:00;;;;;;;;;;;;;;;21.34;25.09;100920.81;4944042;28;97618;-81
2023/06/03 11:01:45;;;;;;;;;;;;;;;21.41;24.16;100914.09;4947299;28;97970;-82
2023/06/03 11:04:15;;;;;;;;;;;;;;;21.40;24.35;100928.44;4949430;28;97988;-81
2023/06/03 11:06:40;;;;;;;;;;;;;;;21.33;24.14;100922.63;4936820;28;98016;-83
2023/06/03 11:09:12;;;;;;;;;;;;;;;21.46;24.50;100922.66;4944652;28;96848;-83
2023/06/03 11:11:41;;;;;;;;;;;;;;;21.54;23.67;100916.78;4934173;28;97441;-82
2023/06/03 11:14:24;;;;;;;;;;;;;;;21.58;23.80;100921.78;4957385;28;101712;-84
2023/06/03 11:16:56;;;;;;;;;;;;;;;21.36;23.57;100914.44;4952670;28;98578;-84
2023/06/03 11:19:31;;;;;;;;;;;;;;;20.98;23.95;100914.41;4958799;28;97205;-84
2023/06/03 11:21:57;;;;;;;;;;;;;;;21.16;24.44;100917.59;4961534;28;97033;-83
2023/06/03 11:24:38;;;;;;;;;;;;;;;21.09;24.65;100909.19;4927788;28;101589;-83
2023/06/03 11:27:30;;;;;;;;;;;;;;;20.82;25.11;100916.38;4965762;28;97874;-84
2023/06/03 11:29:59;;;;;;;;;;;;;;;21.10;24.91;100912.69;4963847;28;97200;-83
2023/06/03 11:32:29;;;;;;;;;;;;;;;21.32;25.30;100912.03;4933344;28;97387;-84
2023/06/03 11:35:14;;;;;;;;;;;;;;;21.20;24.68;100917.28;4941582;28;101849;-83
2023/06/03 11:37:43;;;;;;;;;;;;;;;21.35;25.58;100906.50;4960798;28;101272;-84